Time;durP1;ratioP1;P1;durP2;ratioP2;P2;SDS_P1;SDS_P2;PMS_P1;PMS_P2;Temp;Humidity;BMP_temperature;BMP_pressure;BME280_temperature;BME280_humidity;BME280_pressure;Samples;Min_cycle;Max_cycle;Signal;HPM_P1;HPM_P2
2022/11/06 00:00:46;;;;;;;22.95;8.80;;;;;;;11.08;77.44;94193.75;5119952;27;20657;-78
2022/11/06 00:03:12;;;;;;;15.48;8.40;;;;;;;11.03;77.43;94189.38;5133931;27;20208;-78
2022/11/06 00:08:33;;;;;;;19.65;7.07;;;;;;;10.86;78.44;94189.59;5124743;27;20621;-78
2022/11/06 00:11:00;;;;;;;14.13;6.95;;;;;;;10.88;78.24;94195.47;5119835;27;20226;-78
2022/11/06 00:13:27;;;;;;;19.35;9.05;;;;;;;10.92;78.13;94199.09;5120589;27;20204;-79
2022/11/06 00:15:54;;;;;;;15.70;7.32;;;;;;;10.87;78.11;94191.97;5126579;27;20216;-78
2022/11/06 00:18:21;;;;;;;16.42;7.70;;;;;;;10.81;78.51;94187.91;5125476;27;20200;-79
2022/11/06 00:20:48;;;;;;;20.15;8.70;;;;;;;10.80;78.57;94185.53;5127609;27;20197;-78
2022/11/06 00:23:14;;;;;;;16.42;7.82;;;;;;;10.68;78.97;94181.69;5112307;28;20620;-78
2022/11/06 00:25:44;;;;;;;16.25;8.02;;;;;;;10.66;79.13;94185.84;5112807;28;20625;-78
2022/11/06 00:28:11;;;;;;;18.92;9.00;;;;;;;10.74;79.06;94189.59;5126232;27;20239;-79
2022/11/06 00:30:38;;;;;;;12.70;7.57;;;;;;;10.72;79.20;94194.56;5118843;27;20208;-79
2022/11/06 00:33:05;;;;;;;13.18;7.97;;;;;;;10.61;79.51;94192.31;5118387;27;20190;-79
2022/11/06 00:35:32;;;;;;;18.15;8.57;;;;;;;10.58;79.46;94178.66;5119138;27;20212;-78
2022/11/06 00:37:58;;;;;;;19.15;8.25;;;;;;;10.57;79.68;94185.97;5119264;27;20206;-79
2022/11/06 00:40:25;;;;;;;17.05;8.63;;;;;;;10.64;79.57;94183.50;5105530;27;20262;-79
2022/11/06 00:42:57;;;;;;;14.52;7.10;;;;;;;10.77;79.06;94186.22;5118279;27;20250;-78
2022/11/06 00:45:25;;;;;;;20.85;7.80;;;;;;;10.84;78.90;94186.44;5132936;27;20205;-78
2022/11/06 00:47:52;;;;;;;18.63;8.63;;;;;;;10.73;79.42;94185.31;5117577;27;20228;-78
2022/11/06 00:50:19;;;;;;;23.42;9.00;;;;;;;10.58;79.88;94182.16;5112733;28;20284;-77
2022/11/06 00:52:45;;;;;;;21.98;9.40;;;;;;;10.62;80.01;94169.53;5126190;27;20961;-78
2022/11/06 00:55:12;;;;;;;13.80;6.20;;;;;;;10.78;79.58;94171.56;5122082;27;20197;-79
2022/11/06 00:57:39;;;;;;;16.85;7.53;;;;;;;10.77;79.40;94170.75;5118981;27;20250;-78
2022/11/06 01:00:10;;;;;;;16.27;7.10;;;;;;;10.79;79.34;94171.22;5123200;27;20201;-78
2022/11/06 01:02:37;;;;;;;14.38;7.43;;;;;;;10.77;79.54;94169.97;5125524;27;20561;-78
2022/11/06 01:05:04;;;;;;;16.08;7.47;;;;;;;10.82;79.52;94170.50;5122503;27;20201;-78
2022/11/06 01:07:31;;;;;;;18.58;9.10;;;;;;;10.67;80.27;94171.97;5115031;27;20240;-78
2022/11/06 01:09:57;;;;;;;21.48;9.35;;;;;;;10.66;80.19;94175.81;5112036;28;20201;-78
2022/11/06 01:12:24;;;;;;;12.15;7.13;;;;;;;10.59;80.52;94167.47;5125509;27;20209;-78
2022/11/06 01:14:51;;;;;;;13.02;7.22;;;;;;;10.58;80.46;94165.91;5122558;27;20196;-78
2022/11/06 01:17:20;;;;;;;11.35;6.20;;;;;;;10.51;80.51;94151.34;5114394;27;20275;-79
2022/11/06 01:19:46;;;;;;;16.95;8.20;;;;;;;10.51;80.29;94152.16;5123330;27;20225;-79
2022/11/06 01:22:13;;;;;;;20.67;7.88;;;;;;;10.50;80.60;94153.28;5118375;27;20593;-78
2022/11/06 01:24:40;;;;;;;25.10;11.85;;;;;;;10.51;80.69;94156.78;5120609;27;20225;-79
2022/11/06 01:27:07;;;;;;;15.10;7.72;;;;;;;10.44;80.69;94151.91;5125900;27;20607;-79
2022/11/06 01:29:34;;;;;;;19.30;8.85;;;;;;;10.13;81.60;94157.03;5123255;27;20273;-78
2022/11/06 01:32:01;;;;;;;13.60;7.88;;;;;;;10.08;82.30;94143.72;5112964;27;20226;-78
2022/11/06 01:34:29;;;;;;;14.90;8.32;;;;;;;10.10;82.17;94147.69;5123922;27;20269;-78
2022/11/06 01:36:56;;;;;;;23.90;7.97;;;;;;;10.03;82.65;94149.34;5118450;27;20197;-79
2022/11/06 01:39:22;;;;;;;15.48;5.75;;;;;;;10.15;82.86;94149.34;5131937;27;20783;-81
2022/11/06 01:41:51;;;;;;;13.32;6.53;;;;;;;10.37;82.37;94151.69;5117925;27;20213;-79
2022/11/06 01:44:55;;;;;;;14.50;6.28;;;;;;;10.63;81.13;94146.72;5118381;27;20608;-80
2022/11/06 01:47:24;;;;;;;11.05;5.57;;;;;;;10.88;80.25;94143.97;5113488;27;20261;-79
2022/11/06 01:49:56;;;;;;;11.10;5.72;;;;;;;11.12;79.38;94143.16;5104022;27;20281;-82
2022/11/06 01:52:24;;;;;;;7.95;4.55;;;;;;;11.21;78.89;94133.75;5131955;27;20189;-78
2022/11/06 01:54:54;;;;;;;7.32;3.85;;;;;;;11.35;78.39;94147.69;5117820;27;20257;-79
2022/11/06 01:57:21;;;;;;;11.18;4.70;;;;;;;11.45;77.93;94151.09;5117452;27;20400;-79
2022/11/06 01:59:51;;;;;;;5.95;4.53;;;;;;;11.57;77.33;94142.91;5097035;28;20701;-78
2022/11/06 02:02:19;;;;;;;5.20;3.20;;;;;;;11.65;77.14;94133.81;5123992;27;20727;-79
2022/11/06 02:04:48;;;;;;;6.65;3.95;;;;;;;11.68;76.93;94135.84;5118624;27;20287;-80
2022/11/06 02:07:17;;;;;;;8.88;3.92;;;;;;;11.73;76.68;94143.75;5117398;27;20296;-78
2022/11/06 02:09:44;;;;;;;12.90;5.10;;;;;;;11.82;76.25;94138.97;5121949;27;20225;-82
2022/11/06 02:12:18;;;;;;;4.60;3.60;;;;;;;11.91;75.99;94136.88;5113177;27;20257;-79
2022/11/06 02:14:57;;;;;;;6.03;3.00;;;;;;;12.15;75.13;94130.53;5120436;27;20562;-80
2022/11/06 02:17:41;;;;;;;3.38;2.33;;;;;;;12.39;74.12;94129.56;5124164;27;20281;-75
2022/11/06 02:20:15;;;;;;;5.15;2.65;;;;;;;12.45;73.97;94125.44;5111540;28;20216;-80
2022/11/06 02:23:29;;;;;;;10.43;4.10;;;;;;;12.63;73.23;94118.50;5113613;27;20195;-77
2022/11/06 02:26:15;;;;;;;6.00;3.30;;;;;;;12.78;72.64;94125.06;5047319;28;20617;-80
2022/11/06 02:28:51;;;;;;;6.43;3.17;;;;;;;12.84;72.24;94122.88;5095772;27;20293;-81
2022/11/06 02:31:24;;;;;;;12.88;2.72;;;;;;;12.77;72.43;94124.25;5118113;27;20266;-81
2022/11/06 02:33:56;;;;;;;4.72;2.85;;;;;;;12.78;72.41;94125.84;5104221;27;20773;-78
2022/11/06 02:36:29;;;;;;;9.02;3.05;;;;;;;12.82;72.07;94126.72;5116344;27;20189;-77
2022/11/06 02:39:00;;;;;;;10.07;3.15;;;;;;;13.00;71.49;94120.88;5119616;27;20193;-75
2022/11/06 02:41:33;;;;;;;5.85;3.28;;;;;;;13.06;71.29;94122.19;5128399;27;20262;-80
2022/11/06 02:44:06;;;;;;;4.05;2.55;;;;;;;13.11;71.07;94121.94;5110072;28;20211;-77
2022/11/06 02:46:36;;;;;;;5.85;2.42;;;;;;;13.16;70.75;94135.25;5124129;27;20198;-79
2022/11/06 02:49:07;;;;;;;3.85;2.28;;;;;;;13.11;70.90;94124.63;5110244;28;20320;-80
2022/11/06 02:51:38;;;;;;;4.93;3.20;;;;;;;13.15;70.49;94129.03;5110596;28;20374;-77
2022/11/06 02:54:06;;;;;;;6.93;2.88;;;;;;;13.15;71.20;94139.91;5124083;28;20193;-78
2022/11/06 02:56:38;;;;;;;5.43;2.70;;;;;;;13.20;70.79;94144.28;5123609;27;20206;-76
2022/11/06 02:59:11;;;;;;;3.40;2.50;;;;;;;13.19;70.98;94142.72;5124116;28;20558;-74
2022/11/06 03:01:42;;;;;;;8.40;5.20;;;;;;;13.22;70.87;94144.72;5119181;28;20193;-75
2022/11/06 03:04:15;;;;;;;4.25;2.65;;;;;;;13.19;70.64;94148.16;5116894;27;20197;-79
2022/11/06 03:06:47;;;;;;;1.85;1.25;;;;;;;13.13;71.46;94152.25;5130521;27;20241;-80
2022/11/06 03:09:18;;;;;;;7.20;2.67;;;;;;;13.07;71.76;94150.97;5116744;27;20242;-76
2022/11/06 03:11:48;;;;;;;2.92;1.75;;;;;;;13.04;71.90;94152.44;5130775;27;20181;-77
2022/11/06 03:14:22;;;;;;;3.58;2.17;;;;;;;12.99;72.19;94157.38;5125510;27;20254;-79
2022/11/06 03:16:56;;;;;;;4.20;2.58;;;;;;;12.94;72.21;94166.59;5122865;28;20666;-78
2022/11/06 03:19:29;;;;;;;5.68;1.75;;;;;;;12.82;72.49;94164.78;5122489;27;20657;-77
2022/11/06 03:22:02;;;;;;;9.13;3.75;;;;;;;12.79;72.74;94176.34;5124098;28;20647;-79
2022/11/06 03:24:33;;;;;;;4.90;3.10;;;;;;;12.78;73.08;94168.53;5119702;28;20262;-81
2022/11/06 03:27:09;;;;;;;2.53;1.48;;;;;;;12.80;73.48;94172.50;5116944;27;20197;-79
2022/11/06 03:29:42;;;;;;;5.75;2.20;;;;;;;12.74;74.35;94165.72;5118886;27;20217;-80
2022/11/06 03:32:15;;;;;;;2.72;1.75;;;;;;;12.85;74.80;94173.38;5115291;28;20236;-78
2022/11/06 03:34:53;;;;;;;4.30;2.95;;;;;;;12.87;75.11;94171.06;5115909;27;20201;-79
2022/11/06 03:37:25;;;;;;;4.50;2.67;;;;;;;12.76;75.88;94174.31;5118161;28;20490;-81
2022/11/06 03:39:55;;;;;;;4.32;1.92;;;;;;;12.69;76.68;94178.81;5115058;27;20197;-81
2022/11/06 03:42:25;;;;;;;25.40;3.13;;;;;;;12.63;77.12;94172.84;5120086;28;20190;-78
2022/11/06 03:45:00;;;;;;;6.38;2.85;;;;;;;12.57;77.38;94174.25;5127417;27;20198;-75
2022/11/06 03:47:33;;;;;;;5.82;2.53;;;;;;;12.57;77.66;94168.84;5121630;28;20245;-79
2022/11/06 03:50:05;;;;;;;8.65;3.45;;;;;;;12.51;77.72;94159.34;5116436;27;20277;-78
2022/11/06 03:52:34;;;;;;;5.65;2.05;;;;;;;12.48;77.63;94170.91;5117086;27;20243;-79
2022/11/06 03:55:05;;;;;;;5.07;2.53;;;;;;;12.49;77.74;94161.63;5123110;27;20205;-79
2022/11/06 03:57:39;;;;;;;5.22;2.80;;;;;;;12.51;77.13;94169.44;5125846;28;20242;-78
2022/11/06 04:00:09;;;;;;;5.95;2.78;;;;;;;12.35;77.42;94167.50;5130270;27;20193;-82
2022/11/06 04:02:41;;;;;;;5.80;3.08;;;;;;;12.26;77.83;94176.97;5113702;27;20288;-83
2022/11/06 04:05:12;;;;;;;3.47;2.55;;;;;;;12.17;77.99;94165.44;5120389;28;20230;-77
2022/11/06 04:13:55;;;;;;;5.00;3.47;;;;;;;12.13;77.92;94175.44;5116574;27;20246;-83
2022/11/06 04:16:02;;;;;;;5.43;2.95;;;;;;;12.00;79.11;94180.94;5120096;27;20343;-80
2022/11/06 04:18:29;;;;;;;5.18;2.38;;;;;;;11.92;79.98;94176.44;5129001;27;20246;-77
2022/11/06 04:21:21;;;;;;;5.35;2.92;;;;;;;11.92;80.41;94197.38;5126501;27;20254;-78
2022/11/06 04:26:57;;;;;;;5.53;3.22;;;;;;;11.86;81.52;94194.13;5131963;27;20188;-79
2022/11/06 04:29:41;;;;;;;6.80;3.90;;;;;;;11.83;82.69;94200.25;5123173;27;20217;-82
2022/11/06 04:32:16;;;;;;;9.32;3.17;;;;;;;11.81;82.94;94186.22;5119000;27;20229;-78
2022/11/06 04:34:47;;;;;;;5.82;3.05;;;;;;;11.80;83.27;94189.28;5120135;27;20189;-79
2022/11/06 04:37:21;;;;;;;4.18;2.92;;;;;;;11.79;83.53;94185.00;5106437;27;20675;-78
2022/11/06 04:39:58;;;;;;;2.92;1.60;;;;;;;11.79;84.08;94193.13;5120056;27;20281;-78
2022/11/06 04:42:31;;;;;;;7.38;3.28;;;;;;;11.76;84.87;94191.91;5123042;27;20242;-78
2022/11/06 04:45:03;;;;;;;5.90;3.00;;;;;;;11.71;85.34;94192.13;5126742;27;20713;-77
2022/11/06 04:47:31;;;;;;;6.38;3.25;;;;;;;11.70;85.99;94195.97;5124619;27;20287;-77
2022/11/06 04:50:01;;;;;;;5.30;3.47;;;;;;;11.67;86.25;94207.50;5118655;27;20687;-80
2022/11/06 04:52:28;;;;;;;10.55;3.20;;;;;;;11.67;86.65;94212.94;5118627;27;20202;-77
2022/11/06 04:54:57;;;;;;;3.67;2.08;;;;;;;11.63;87.11;94198.47;5125310;27;20193;-80
2022/11/06 04:57:25;;;;;;;5.50;3.20;;;;;;;11.61;87.23;94209.69;5125646;27;20655;-79
2022/11/06 04:59:52;;;;;;;6.47;3.55;;;;;;;11.58;87.81;94204.16;5119838;27;20208;-78
2022/11/06 05:02:18;;;;;;;5.05;3.72;;;;;;;11.55;88.42;94213.75;5118538;27;20263;-79
2022/11/06 05:04:47;;;;;;;3.10;1.80;;;;;;;11.55;88.61;94215.69;5119699;27;20200;-76
2022/11/06 05:07:14;;;;;;;6.10;3.30;;;;;;;11.53;89.01;94207.88;5118760;27;20210;-80
2022/11/06 05:09:41;;;;;;;6.97;2.75;;;;;;;11.55;89.11;94221.13;5124837;27;20278;-79
2022/11/06 05:12:08;;;;;;;7.45;3.30;;;;;;;11.53;89.50;94228.81;5125976;27;20265;-79
2022/11/06 05:14:34;;;;;;;6.05;3.00;;;;;;;11.51;90.01;94231.06;5120608;27;20299;-82
2022/11/06 05:17:01;;;;;;;2.65;1.98;;;;;;;11.56;90.35;94241.69;5118980;27;20231;-81
2022/11/06 05:19:28;;;;;;;5.55;3.15;;;;;;;11.61;90.70;94236.03;5122752;27;20206;-81
2022/11/06 05:24:40;;;;;;;5.45;2.35;;;;;;;11.64;90.90;94236.09;5091556;28;20322;-80
2022/11/06 05:27:07;;;;;;;6.20;3.75;;;;;;;11.67;90.75;94240.84;5101097;27;20683;-80
2022/11/06 05:29:34;;;;;;;7.10;3.05;;;;;;;11.66;90.98;94239.28;5132825;27;20229;-79
2022/11/06 05:32:00;;;;;;;9.35;4.03;;;;;;;11.70;90.89;94247.53;5127767;27;20290;-79
2022/11/06 05:34:27;;;;;;;6.03;3.55;;;;;;;11.75;90.76;94244.59;5124320;27;20197;-79
2022/11/06 05:36:54;;;;;;;13.60;4.93;;;;;;;11.77;90.60;94252.38;5113257;27;20250;-79
2022/11/06 05:39:22;;;;;;;6.25;4.05;;;;;;;11.79;90.69;94253.63;5123439;27;20201;-76
2022/11/06 05:41:49;;;;;;;9.43;4.78;;;;;;;11.82;90.59;94250.22;5118120;27;20205;-79
2022/11/06 05:44:16;;;;;;;8.75;4.80;;;;;;;11.85;90.46;94252.25;5119563;27;20646;-79
2022/11/06 05:46:42;;;;;;;7.28;3.78;;;;;;;11.85;90.51;94252.25;5119260;27;20266;-79
2022/11/06 05:49:09;;;;;;;5.53;3.55;;;;;;;11.87;90.46;94255.44;5111688;28;20233;-77
2022/11/06 05:51:36;;;;;;;6.18;3.70;;;;;;;12.00;89.82;94280.59;5125156;27;20620;-79
2022/11/06 05:54:03;;;;;;;15.68;3.78;;;;;;;12.05;89.75;94272.97;5110819;28;20622;-78
2022/11/06 05:56:31;;;;;;;6.10;2.78;;;;;;;12.08;89.51;94283.16;5124582;27;20205;-81
2022/11/06 05:59:01;;;;;;;8.52;4.38;;;;;;;12.10;89.32;94280.91;5124806;27;20196;-80
2022/11/06 06:01:27;;;;;;;8.38;4.50;;;;;;;12.16;89.02;94288.81;5104525;27;20201;-78
2022/11/06 06:03:58;;;;;;;13.50;4.75;;;;;;;12.19;88.74;94288.09;5117888;27;20202;-79
2022/11/06 06:06:32;;;;;;;12.57;5.45;;;;;;;12.17;88.33;94285.72;5122678;27;20194;-80
2022/11/06 06:09:01;;;;;;;8.75;4.68;;;;;;;12.21;87.96;94296.69;5124751;27;20306;-79
2022/11/06 06:11:27;;;;;;;6.82;4.32;;;;;;;12.20;87.54;94295.09;5110811;28;20674;-79
2022/11/06 06:13:55;;;;;;;6.68;4.00;;;;;;;12.30;86.98;94291.91;5124707;27;20261;-80
2022/11/06 06:16:22;;;;;;;7.78;4.40;;;;;;;12.31;87.18;94296.97;5120200;27;20269;-80
2022/11/06 06:18:51;;;;;;;8.82;4.82;;;;;;;12.32;86.63;94305.91;5114718;27;20202;-79
2022/11/06 06:21:18;;;;;;;14.15;4.70;;;;;;;12.36;86.57;94309.53;5109798;28;20251;-79
2022/11/06 06:23:45;;;;;;;10.02;5.88;;;;;;;12.36;86.76;94314.97;5110243;28;20289;-79
2022/11/06 06:26:12;;;;;;;6.05;4.07;;;;;;;12.39;86.50;94306.13;5120071;27;20213;-81
2022/11/06 06:28:39;;;;;;;7.38;4.57;;;;;;;12.40;86.90;94310.41;5127734;27;20238;-78
2022/11/06 06:31:08;;;;;;;8.20;4.75;;;;;;;12.40;87.07;94307.72;5119462;27;20633;-80
2022/11/06 06:33:35;;;;;;;10.10;3.97;;;;;;;12.41;87.32;94312.00;5117187;27;20253;-82
2022/11/06 06:36:04;;;;;;;7.32;3.60;;;;;;;12.52;86.66;94320.44;5119107;27;20201;-79
2022/11/06 06:38:30;;;;;;;17.92;4.97;;;;;;;12.58;86.62;94324.47;5124333;27;20201;-80
2022/11/06 06:41:01;;;;;;;11.75;5.82;;;;;;;12.63;86.29;94316.88;5109955;28;20246;-78
2022/11/06 06:43:28;;;;;;;8.73;3.22;;;;;;;12.70;85.75;94317.06;5124064;27;20296;-80
2022/11/06 06:46:18;;;;;;;5.90;4.05;;;;;;;12.71;85.67;94320.59;5122197;27;20287;-80
2022/11/06 06:48:44;;;;;;;10.35;5.93;;;;;;;12.83;85.20;94320.50;5099587;28;20198;-80
2022/11/06 06:51:11;;;;;;;9.93;4.57;;;;;;;12.76;85.25;94333.91;5124288;27;20236;-79
2022/11/06 06:53:40;;;;;;;6.72;4.43;;;;;;;12.74;85.59;94336.97;5119453;27;20258;-77
2022/11/06 06:56:07;;;;;;;9.27;4.50;;;;;;;12.76;85.35;94329.25;5117252;27;20200;-81
2022/11/06 06:58:34;;;;;;;7.75;4.65;;;;;;;12.77;85.27;94340.91;5130695;27;20246;-78
2022/11/06 07:01:02;;;;;;;8.05;4.75;;;;;;;12.82;85.06;94332.50;5116836;28;20197;-81
2022/11/06 07:03:30;;;;;;;5.68;3.83;;;;;;;12.90;84.80;94333.47;5119939;27;20560;-79
2022/11/06 07:05:58;;;;;;;8.73;5.80;;;;;;;13.05;84.36;94343.59;5119568;28;20653;-78
2022/11/06 07:08:25;;;;;;;6.57;4.55;;;;;;;13.11;83.30;94353.06;5089424;28;20234;-79
2022/11/06 07:10:52;;;;;;;11.82;5.85;;;;;;;13.28;82.71;94355.47;5092719;28;20568;-79
2022/11/06 07:13:19;;;;;;;7.32;4.35;;;;;;;13.34;82.30;94356.78;5108266;28;20205;-80
2022/11/06 07:15:45;;;;;;;5.45;2.67;;;;;;;13.37;81.63;94371.63;5115993;28;20204;-81
2022/11/06 07:18:12;;;;;;;7.53;4.75;;;;;;;13.29;81.22;94357.03;5119099;27;20201;-78
2022/11/06 07:20:40;;;;;;;8.57;4.82;;;;;;;13.16;81.56;94367.22;5113987;28;20201;-78
2022/11/06 07:23:08;;;;;;;5.32;3.30;;;;;;;13.10;81.70;94365.09;5121993;27;20210;-81
2022/11/06 07:25:35;;;;;;;14.75;3.90;;;;;;;13.00;82.48;94368.31;5110239;28;20210;-78
2022/11/06 07:28:03;;;;;;;4.03;2.80;;;;;;;12.94;82.83;94367.78;5108975;28;20194;-81
2022/11/06 07:30:30;;;;;;;5.18;4.05;;;;;;;13.03;82.75;94370.31;5107946;28;20217;-80
2022/11/06 07:32:59;;;;;;;7.05;3.58;;;;;;;13.01;82.55;94378.03;5109251;28;20198;-80
2022/11/06 07:35:26;;;;;;;11.13;5.70;;;;;;;13.10;82.33;94381.41;5109322;28;20193;-82
2022/11/06 07:37:54;;;;;;;9.25;4.70;;;;;;;13.16;81.84;94375.38;5111626;28;20626;-78
2022/11/06 07:40:21;;;;;;;15.85;6.75;;;;;;;13.15;82.18;94373.00;5108845;28;20197;-77
2022/11/06 07:42:48;;;;;;;11.88;6.20;;;;;;;13.21;81.69;94377.06;5110379;28;20247;-78
2022/11/06 07:45:15;;;;;;;11.05;6.03;;;;;;;13.29;81.17;94367.13;5106398;28;20194;-79
2022/11/06 07:47:42;;;;;;;8.95;3.65;;;;;;;13.36;80.88;94379.00;5118440;27;20656;-75
2022/11/06 07:50:09;;;;;;;8.10;3.60;;;;;;;13.43;80.58;94381.88;5093688;28;20222;-75
2022/11/06 07:52:36;;;;;;;9.50;4.40;;;;;;;13.51;80.03;94386.38;5099511;27;20253;-76
2022/11/06 07:55:05;;;;;;;11.07;4.32;;;;;;;13.59;79.72;94370.19;5125061;27;20201;-78
2022/11/06 07:57:36;;;;;;;6.55;4.15;;;;;;;13.71;79.53;94378.25;5114596;27;20238;-76
2022/11/06 08:00:04;;;;;;;22.55;9.57;;;;;;;13.74;79.15;94374.84;5111670;27;20197;-76
2022/11/06 08:02:30;;;;;;;5.50;3.63;;;;;;;13.76;79.13;94375.28;5114100;27;20197;-78
2022/11/06 08:05:00;;;;;;;10.70;4.47;;;;;;;13.82;79.16;94379.28;5114391;27;20206;-77
2022/11/06 08:07:26;;;;;;;8.23;4.85;;;;;;;13.86;79.20;94385.63;5105002;28;20220;-77
2022/11/06 08:09:53;;;;;;;7.88;4.03;;;;;;;13.80;80.26;94384.31;5113081;28;20229;-77
2022/11/06 08:12:21;;;;;;;10.25;5.20;;;;;;;13.89;80.36;94395.81;5125477;27;20198;-78
2022/11/06 08:14:48;;;;;;;4.80;2.72;;;;;;;13.84;80.24;94388.69;5123054;27;20208;-80
2022/11/06 08:17:15;;;;;;;21.55;12.27;;;;;;;13.95;80.30;94383.50;5118854;27;20250;-79
2022/11/06 08:19:42;;;;;;;10.70;5.85;;;;;;;14.18;79.54;94389.88;5116158;27;20198;-79
2022/11/06 08:22:09;;;;;;;18.48;9.10;;;;;;;14.18;79.70;94392.59;5112018;28;20221;-76
2022/11/06 08:24:38;;;;;;;19.13;10.90;;;;;;;14.09;80.04;94394.69;5111876;27;20205;-76
2022/11/06 08:27:05;;;;;;;9.20;5.00;;;;;;;14.09;80.01;94383.81;5112194;27;20205;-75
2022/11/06 08:29:33;;;;;;;10.73;5.68;;;;;;;14.14;79.95;94402.59;5111057;28;20247;-76
2022/11/06 08:32:00;;;;;;;10.70;5.53;;;;;;;14.15;79.96;94404.19;5115126;27;20262;-77
2022/11/06 08:34:27;;;;;;;11.38;5.70;;;;;;;14.02;82.17;94400.00;5111825;28;20258;-78
2022/11/06 08:36:53;;;;;;;14.05;6.88;;;;;;;13.99;84.55;94400.72;5124635;27;20193;-78
2022/11/06 08:39:20;;;;;;;7.78;4.82;;;;;;;13.80;85.50;94403.38;5111382;28;20190;-78
2022/11/06 08:41:47;;;;;;;9.68;4.97;;;;;;;13.60;86.59;94412.59;5113852;27;20209;-79
2022/11/06 08:44:14;;;;;;;11.10;6.07;;;;;;;13.50;87.55;94416.66;5113746;27;20235;-81
2022/11/06 08:46:42;;;;;;;8.98;5.78;;;;;;;13.51;88.21;94424.47;5111537;27;20190;-78
2022/11/06 08:49:10;;;;;;;11.90;6.97;;;;;;;13.52;89.78;94414.38;5108666;28;20606;-82
2022/11/06 08:51:36;;;;;;;3.50;2.38;;;;;;;13.52;88.41;94415.16;5114215;27;20221;-80
2022/11/06 08:54:03;;;;;;;8.65;5.57;;;;;;;13.61;89.36;94422.34;5112816;27;20606;-80
2022/11/06 08:56:30;;;;;;;12.07;6.85;;;;;;;13.66;89.31;94435.72;5111511;28;20547;-79
2022/11/06 08:58:57;;;;;;;13.35;7.32;;;;;;;13.63;89.42;94425.53;5110728;28;20687;-79
2022/11/06 09:01:26;;;;;;;13.27;7.38;;;;;;;13.81;90.59;94432.16;5110647;27;20792;-78
2022/11/06 09:03:54;;;;;;;10.98;6.00;;;;;;;13.80;89.63;94422.44;5111169;28;20194;-79
2022/11/06 09:06:21;;;;;;;14.48;7.65;;;;;;;13.83;89.57;94425.22;5110199;27;20194;-78
2022/11/06 09:08:51;;;;;;;15.32;5.20;;;;;;;13.85;89.41;94427.59;5111494;27;20193;-81
2022/11/06 09:11:17;;;;;;;13.75;7.10;;;;;;;13.77;89.44;94426.66;5124098;27;20233;-76
2022/11/06 09:13:44;;;;;;;12.13;5.95;;;;;;;13.76;89.61;94429.72;5104170;28;20202;-80
2022/11/06 09:16:11;;;;;;;11.65;7.20;;;;;;;13.72;89.73;94429.63;5119549;27;20205;-78
2022/11/06 09:18:38;;;;;;;11.60;5.75;;;;;;;13.60;89.39;94426.22;5131576;27;20266;-78
2022/11/06 09:21:06;;;;;;;14.63;6.88;;;;;;;13.58;91.29;94432.00;5122670;27;20258;-79
2022/11/06 09:23:36;;;;;;;13.68;6.82;;;;;;;13.53;91.29;94426.81;5110723;28;20290;-77
2022/11/06 09:26:02;;;;;;;13.25;6.32;;;;;;;13.45;92.14;94430.50;5112937;27;20251;-79
2022/11/06 09:28:29;;;;;;;19.15;6.60;;;;;;;13.48;92.21;94438.78;5110237;28;20266;-76
2022/11/06 09:30:56;;;;;;;15.23;6.13;;;;;;;13.45;91.68;94442.19;5120871;27;20236;-80
2022/11/06 09:33:23;;;;;;;13.63;7.03;;;;;;;13.44;93.27;94435.16;5114949;27;20293;-78
2022/11/06 09:35:49;;;;;;;11.20;6.82;;;;;;;13.35;92.20;94434.53;5121174;27;20209;-78
2022/11/06 09:38:17;;;;;;;13.48;6.15;;;;;;;13.38;91.66;94442.03;5128167;27;20425;-76
2022/11/06 09:40:49;;;;;;;10.60;5.82;;;;;;;13.30;89.68;94439.44;5120534;27;20289;-77
2022/11/06 09:43:48;;;;;;;10.38;5.85;;;;;;;13.28;90.44;94430.84;5117194;27;20203;-79
2022/11/06 09:46:24;;;;;;;12.05;5.80;;;;;;;13.22;91.41;94437.69;5125377;27;20197;-80
2022/11/06 09:48:58;;;;;;;8.85;5.80;;;;;;;13.21;91.83;94431.47;5101024;28;20219;-83
2022/11/06 09:51:33;;;;;;;11.27;5.95;;;;;;;13.20;90.47;94434.53;5113539;27;20212;-80
2022/11/06 09:54:11;;;;;;;6.38;4.35;;;;;;;13.20;89.55;94440.75;5119006;27;20540;-78
2022/11/06 09:56:41;;;;;;;14.35;5.72;;;;;;;13.14;90.46;94440.19;5090222;28;20190;-79
2022/11/06 09:59:12;;;;;;;9.93;5.60;;;;;;;13.17;88.79;94441.44;5118386;27;20253;-78
2022/11/06 10:01:43;;;;;;;10.80;5.57;;;;;;;13.22;89.78;94433.03;5119815;27;20201;-80
2022/11/06 10:04:23;;;;;;;10.55;5.50;;;;;;;13.30;89.08;94439.44;5117726;27;20206;-80
2022/11/06 10:06:50;;;;;;;7.75;3.78;;;;;;;13.27;87.91;94434.69;5122016;27;20234;-80
2022/11/06 10:09:18;;;;;;;6.25;4.80;;;;;;;13.30;88.39;94434.78;5116610;27;20201;-85
2022/11/06 10:11:57;;;;;;;15.27;6.38;;;;;;;13.33;87.26;94434.09;5133544;27;20266;-80
2022/11/06 10:14:36;;;;;;;8.65;4.40;;;;;;;13.37;88.61;94435.00;5117744;27;20249;-78
2022/11/06 10:17:13;;;;;;;13.93;7.90;;;;;;;13.38;87.17;94425.69;5116883;27;20235;-75
2022/11/06 10:19:48;;;;;;;11.90;6.03;;;;;;;13.28;85.42;94425.41;5120980;27;20624;-77
2022/11/06 10:22:17;;;;;;;5.93;3.85;;;;;;;13.35;87.32;94431.81;5127497;27;20208;-76
2022/11/06 10:24:52;;;;;;;7.88;4.68;;;;;;;13.40;86.93;94434.28;5118461;27;20246;-75
2022/11/06 10:27:26;;;;;;;9.57;4.88;;;;;;;13.38;87.71;94436.56;5129913;27;20196;-83
2022/11/06 10:30:03;;;;;;;7.78;4.00;;;;;;;13.55;89.60;94429.19;5116922;27;20190;-77
2022/11/06 10:32:52;;;;;;;10.75;5.25;;;;;;;13.45;88.20;94444.13;5121432;27;20237;-77
2022/11/06 10:35:23;;;;;;;12.48;4.68;;;;;;;13.50;89.21;94431.06;5114993;27;20632;-80
2022/11/06 10:37:59;;;;;;;9.13;4.47;;;;;;;13.57;89.11;94432.34;5110058;28;20205;-79
2022/11/06 10:40:30;;;;;;;13.32;7.82;;;;;;;13.58;88.16;94428.50;5116408;27;20185;-76
2022/11/06 10:43:03;;;;;;;6.65;4.30;;;;;;;13.54;89.15;94439.28;5116378;27;20864;-77
2022/11/06 10:45:30;;;;;;;12.88;8.23;;;;;;;13.58;89.71;94433.94;5130484;27;20190;-78
2022/11/06 10:48:05;;;;;;;5.97;4.45;;;;;;;13.57;89.10;94435.06;5114759;27;20348;-78
2022/11/06 10:50:42;;;;;;;8.55;2.92;;;;;;;13.59;88.14;94438.25;5109690;28;20758;-77
2022/11/06 10:53:19;;;;;;;6.75;4.50;;;;;;;13.66;89.42;94441.16;5115355;27;20555;-78
2022/11/06 10:56:27;;;;;;;7.28;4.75;;;;;;;13.65;90.64;94436.84;5116617;27;20189;-77
2022/11/06 10:58:55;;;;;;;7.28;5.07;;;;;;;13.61;89.85;94444.13;5082962;27;20197;-79
2022/11/06 11:01:23;;;;;;;6.13;1.80;;;;;;;13.44;89.29;94446.03;5110162;27;20197;-75
2022/11/06 11:03:50;;;;;;;3.15;1.88;;;;;;;13.31;89.84;94444.53;5122331;28;20204;-78
2022/11/06 11:06:17;;;;;;;4.55;1.85;;;;;;;13.22;89.67;94445.84;5109042;27;20244;-75
2022/11/06 11:08:45;;;;;;;3.20;1.90;;;;;;;13.11;91.23;94449.06;5109340;28;20196;-78
2022/11/06 11:11:24;;;;;;;3.28;2.13;;;;;;;13.05;90.29;94458.59;5103546;28;20280;-77
2022/11/06 11:14:11;;;;;;;3.30;2.10;;;;;;;13.08;91.94;94448.94;5115342;27;20680;-77
2022/11/06 11:16:42;;;;;;;3.60;2.13;;;;;;;13.05;90.57;94449.63;5118309;27;20194;-77
2022/11/06 11:19:23;;;;;;;4.30;2.13;;;;;;;13.01;91.60;94451.47;5126614;27;20288;-76
2022/11/06 11:21:56;;;;;;;2.88;2.15;;;;;;;12.97;91.26;94451.38;5128179;27;20327;-77
2022/11/06 11:24:23;;;;;;;2.33;1.88;;;;;;;13.03;92.10;94436.38;5125932;27;20564;-76
2022/11/06 11:26:52;;;;;;;3.78;2.45;;;;;;;13.03;91.60;94436.38;5127598;27;20300;-77
2022/11/06 11:29:23;;;;;;;5.63;3.50;;;;;;;13.12;90.93;94439.72;5122534;27;20205;-78
2022/11/06 11:31:57;;;;;;;7.10;3.10;;;;;;;13.19;91.66;94433.72;5130916;27;20240;-78
2022/11/06 11:34:27;;;;;;;4.85;2.65;;;;;;;13.27;90.27;94434.69;5124621;27;20332;-78
2022/11/06 11:36:58;;;;;;;5.00;2.83;;;;;;;13.35;90.53;94431.81;5120107;27;20253;-78
2022/11/06 11:39:28;;;;;;;4.38;3.67;;;;;;;13.28;90.24;94419.94;5122608;27;20193;-79
2022/11/06 11:42:16;;;;;;;7.68;3.10;;;;;;;13.44;90.90;94432.44;5127382;27;20190;-79
2022/11/06 11:44:43;;;;;;;5.03;3.10;;;;;;;13.52;90.82;94431.50;5128604;27;20881;-79
2022/11/06 11:47:21;;;;;;;4.18;2.33;;;;;;;13.58;91.45;94423.84;5122572;27;20201;-78
2022/11/06 11:49:48;;;;;;;9.75;3.60;;;;;;;13.70;93.16;94431.91;5106457;27;20262;-80
2022/11/06 11:52:19;;;;;;;13.35;4.43;;;;;;;13.74;92.74;94426.56;5121903;27;20229;-78
2022/11/06 11:54:50;;;;;;;6.68;3.15;;;;;;;13.67;90.61;94421.72;5127119;27;20190;-78
2022/11/06 11:57:20;;;;;;;6.95;4.70;;;;;;;13.68;91.56;94422.50;5126424;27;20197;-78